Time;durP1;ratioP1;P1;durP2;ratioP2;P2;SDS_P1;SDS_P2;PMS_P1;PMS_P2;Temp;Humidity;BMP_temperature;BMP_pressure;BME280_temperature;BME280_humidity;BME280_pressure;Samples;Min_cycle;Max_cycle;Signal;HPM_P1;HPM_P2
2021/10/01 00:03:17;;;;;;;4.97;1.90;;;;;;;-146.32;100.00;58893.91;6228223;28;20235;-52
2021/10/01 00:06:39;;;;;;;5.33;2.00;;;;;;;-146.32;100.00;58893.91;6228740;28;20681;-48
2021/10/01 00:10:00;;;;;;;8.43;2.83;;;;;;;-146.32;100.00;58893.91;6232518;28;20830;-52
2021/10/01 00:13:21;;;;;;;4.13;2.00;;;;;;;-146.32;100.00;58893.91;6231930;28;20229;-50
2021/10/01 00:16:42;;;;;;;2.60;1.90;;;;;;;-146.32;100.00;58893.91;6228477;28;20197;-53
2021/10/01 00:20:05;;;;;;;4.10;1.70;;;;;;;-146.32;100.00;58893.91;6229841;28;20221;-49
2021/10/01 00:23:27;;;;;;;3.87;2.20;;;;;;;-146.32;100.00;58893.91;6230588;28;20233;-49
2021/10/01 00:26:48;;;;;;;4.27;2.33;;;;;;;-146.32;100.00;58893.91;6232124;28;20498;-53
2021/10/01 00:30:09;;;;;;;3.97;1.93;;;;;;;-146.32;100.00;58893.91;6234041;28;20224;-53
2021/10/01 00:33:30;;;;;;;4.27;2.43;;;;;;;-146.32;100.00;58893.91;6232119;28;20224;-51
2021/10/01 00:36:51;;;;;;;2.57;1.90;;;;;;;-146.32;100.00;58893.91;6233306;28;20201;-50
2021/10/01 00:40:14;;;;;;;2.67;1.40;;;;;;;-146.32;100.00;58893.91;6237301;28;20221;-52
2021/10/01 00:43:36;;;;;;;6.37;2.07;;;;;;;-146.32;100.00;58893.91;6230734;28;20229;-52
2021/10/01 00:46:57;;;;;;;4.23;2.20;;;;;;;-146.32;100.00;58893.91;6234061;28;21830;-48
2021/10/01 00:50:18;;;;;;;3.50;1.77;;;;;;;-146.32;100.00;58893.91;6217418;28;20212;-52
2021/10/01 00:53:39;;;;;;;6.37;2.63;;;;;;;-146.32;100.00;58893.91;6221586;28;20693;-50
2021/10/01 00:57:02;;;;;;;3.67;1.70;;;;;;;-146.32;100.00;58893.91;6221285;28;20209;-52
2021/10/01 01:00:27;;;;;;;3.60;2.00;;;;;;;-146.32;100.00;58893.91;6228829;28;20229;-49
2021/10/01 01:03:54;;;;;;;4.50;2.27;;;;;;;-146.32;100.00;58893.91;6232913;28;20520;-50
2021/10/01 01:07:20;;;;;;;6.17;1.93;;;;;;;-146.32;100.00;58893.91;6233999;28;20248;-51
2021/10/01 01:10:49;;;;;;;3.37;1.60;;;;;;;-146.32;100.00;58893.91;6224238;28;20201;-54
2021/10/01 01:14:17;;;;;;;2.50;1.87;;;;;;;-146.32;100.00;58893.91;6216586;28;20228;-50
2021/10/01 01:17:43;;;;;;;3.93;1.63;;;;;;;-146.32;100.00;58893.91;6223222;28;20573;-48
2021/10/01 01:21:05;;;;;;;5.97;2.20;;;;;;;-146.32;100.00;58893.91;6226801;28;20630;-54
2021/10/01 01:24:46;;;;;;;3.97;1.90;;;;;;;-146.32;100.00;58893.91;6224688;28;20232;-53
2021/10/01 01:28:30;;;;;;;5.20;2.83;;;;;;;-146.32;100.00;58893.91;6222392;28;20696;-53
2021/10/01 01:32:07;;;;;;;3.00;1.50;;;;;;;-146.32;100.00;58893.91;6218495;28;20627;-51
2021/10/01 01:35:34;;;;;;;3.43;1.60;;;;;;;-146.32;100.00;58893.91;6221055;28;20228;-50
2021/10/01 01:38:58;;;;;;;3.27;1.23;;;;;;;-146.32;100.00;58893.91;6224223;28;20228;-49
2021/10/01 01:42:20;;;;;;;3.00;1.40;;;;;;;-146.32;100.00;58893.91;6221518;28;20193;-53
2021/10/01 01:45:42;;;;;;;5.37;2.87;;;;;;;-146.32;100.00;58893.91;6219391;28;20221;-50
2021/10/01 01:49:05;;;;;;;2.60;1.63;;;;;;;-146.32;100.00;58893.91;6239458;28;20232;-50
2021/10/01 01:52:26;;;;;;;3.43;1.30;;;;;;;-146.32;100.00;58893.91;6238166;28;20232;-50
2021/10/01 01:55:48;;;;;;;5.90;2.47;;;;;;;-146.32;100.00;58893.91;6235933;28;20220;-51
2021/10/01 01:59:11;;;;;;;3.03;2.17;;;;;;;-146.32;100.00;58893.91;6225075;28;20224;-51
2021/10/01 02:02:35;;;;;;;3.43;1.30;;;;;;;-146.32;100.00;58893.91;6225123;28;20590;-54
2021/10/01 02:05:59;;;;;;;1.70;1.37;;;;;;;-146.32;100.00;58893.91;6223795;28;20209;-51
2021/10/01 02:09:21;;;;;;;3.77;2.30;;;;;;;-146.32;100.00;58893.91;6238431;28;20232;-49
2021/10/01 02:12:45;;;;;;;3.23;1.33;;;;;;;-146.32;100.00;58893.91;6222667;28;20229;-48
2021/10/01 02:16:09;;;;;;;2.20;1.20;;;;;;;-146.32;100.00;58893.91;6218258;28;20523;-51
2021/10/01 02:19:33;;;;;;;5.53;1.63;;;;;;;-146.32;100.00;58893.91;6224258;28;20240;-48
2021/10/01 02:22:56;;;;;;;5.40;1.63;;;;;;;-146.32;100.00;58893.91;6218750;28;20319;-49
2021/10/01 02:26:35;;;;;;;3.87;1.20;;;;;;;-146.32;100.00;58893.91;6222671;28;20610;-47
2021/10/01 02:29:59;;;;;;;4.43;2.13;;;;;;;-146.32;100.00;58893.91;6218480;28;20267;-51
2021/10/01 02:33:27;;;;;;;4.73;2.10;;;;;;;-146.32;100.00;58893.91;6214765;28;20236;-54
2021/10/01 02:36:49;;;;;;;2.87;1.50;;;;;;;-146.32;100.00;58893.91;6239947;28;20291;-51
2021/10/01 02:40:13;;;;;;;4.43;1.43;;;;;;;-146.32;100.00;58893.91;6224629;28;20220;-52
2021/10/01 02:43:35;;;;;;;4.07;1.87;;;;;;;-146.32;100.00;58893.91;6221098;28;20229;-54
2021/10/01 02:46:56;;;;;;;3.90;1.50;;;;;;;-146.32;100.00;58893.91;6219465;28;20287;-53
2021/10/01 02:50:20;;;;;;;4.67;1.80;;;;;;;-146.32;100.00;58893.91;6215714;28;20602;-49
2021/10/01 02:53:50;;;;;;;2.27;1.67;;;;;;;-146.32;100.00;58893.91;6222579;28;20534;-49
2021/10/01 02:57:18;;;;;;;4.40;1.43;;;;;;;-146.32;100.00;58893.91;6236812;28;20237;-52
2021/10/01 03:00:40;;;;;;;4.00;1.77;;;;;;;-146.32;100.00;58893.91;6217020;28;20205;-50
2021/10/01 03:04:05;;;;;;;2.50;1.77;;;;;;;-146.32;100.00;58893.91;6215811;28;20237;-48
2021/10/01 03:07:28;;;;;;;3.87;1.83;;;;;;;-146.32;100.00;58893.91;6223748;28;20319;-52
2021/10/01 03:10:51;;;;;;;5.53;2.10;;;;;;;-146.32;100.00;58893.91;6231447;28;20197;-51
2021/10/01 03:14:16;;;;;;;3.50;1.47;;;;;;;-146.32;100.00;58893.91;6230906;28;20224;-50
2021/10/01 03:17:37;;;;;;;4.77;1.57;;;;;;;-146.32;100.00;58893.91;6216004;28;20383;-49
2021/10/01 03:21:02;;;;;;;4.93;1.87;;;;;;;-146.32;100.00;58893.91;6224403;28;20209;-54
2021/10/01 03:24:24;;;;;;;3.77;2.27;;;;;;;-146.32;100.00;58893.91;6216522;28;20237;-53
2021/10/01 03:27:47;;;;;;;2.80;0.90;;;;;;;-146.32;100.00;58893.91;6217615;28;21962;-48
2021/10/01 03:31:10;;;;;;;3.57;1.60;;;;;;;-146.32;100.00;58893.91;6221925;28;20201;-49
2021/10/01 03:34:34;;;;;;;3.30;1.77;;;;;;;-146.32;100.00;58893.91;6216863;28;20216;-48
2021/10/01 03:38:03;;;;;;;2.10;1.27;;;;;;;-146.32;100.00;58893.91;6216980;28;20239;-53
2021/10/01 03:41:24;;;;;;;1.53;1.00;;;;;;;-146.32;100.00;58893.91;6219237;28;20228;-48
2021/10/01 03:44:47;;;;;;;2.63;1.43;;;;;;;-146.32;100.00;58893.91;6217763;28;20618;-49
2021/10/01 03:48:10;;;;;;;4.50;1.50;;;;;;;-146.32;100.00;58893.91;6219766;28;20232;-50
2021/10/01 03:51:57;;;;;;;4.90;2.00;;;;;;;-146.32;100.00;58893.91;6218238;28;20583;-51
2021/10/01 03:55:21;;;;;;;4.30;2.23;;;;;;;-146.32;100.00;58893.91;6215590;28;20261;-54
2021/10/01 03:58:44;;;;;;;2.77;1.73;;;;;;;-146.32;100.00;58893.91;6220302;28;20662;-53
2021/10/01 04:02:05;;;;;;;3.47;1.50;;;;;;;-146.32;100.00;58893.91;6219601;28;20858;-48
2021/10/01 04:05:28;;;;;;;2.60;1.80;;;;;;;-146.32;100.00;58893.91;6216900;28;20653;-51
2021/10/01 04:08:50;;;;;;;1.50;1.10;;;;;;;-146.32;100.00;58893.91;6219921;28;20233;-47
2021/10/01 04:12:11;;;;;;;3.27;1.87;;;;;;;-146.32;100.00;58893.91;6225374;28;20189;-50
2021/10/01 04:15:32;;;;;;;3.87;2.13;;;;;;;-146.32;100.00;58893.91;6218837;28;20193;-52
2021/10/01 04:18:53;;;;;;;5.40;2.30;;;;;;;-146.32;100.00;58893.91;6216882;28;20229;-53
2021/10/01 04:22:16;;;;;;;1.97;1.30;;;;;;;-146.32;100.00;58893.91;6234626;28;20228;-50
2021/10/01 04:26:12;;;;;;;5.93;2.43;;;;;;;-146.32;100.00;58893.91;6148409;28;20212;-48
2021/10/01 04:29:34;;;;;;;6.47;1.90;;;;;;;-146.32;100.00;58893.91;6215991;28;20243;-53
2021/10/01 04:33:01;;;;;;;4.17;1.60;;;;;;;-146.32;100.00;58893.91;6219705;28;20251;-52
2021/10/01 04:36:26;;;;;;;4.17;1.30;;;;;;;-146.32;100.00;58893.91;6215087;28;20570;-54
2021/10/01 04:39:48;;;;;;;1.77;1.27;;;;;;;-146.32;100.00;58893.91;6217549;28;20233;-53
2021/10/01 04:43:09;;;;;;;1.53;1.30;;;;;;;-146.32;100.00;58893.91;6219100;28;20225;-49
2021/10/01 04:46:35;;;;;;;4.10;1.83;;;;;;;-146.32;100.00;58893.91;6219610;28;20197;-54
2021/10/01 04:49:58;;;;;;;3.23;1.77;;;;;;;-146.32;100.00;58893.91;6215756;28;20228;-54
2021/10/01 04:53:19;;;;;;;3.13;1.50;;;;;;;-146.32;100.00;58893.91;6214961;28;20689;-52
2021/10/01 04:56:41;;;;;;;2.03;1.33;;;;;;;-146.32;100.00;58893.91;6211336;28;20216;-52
2021/10/01 05:00:02;;;;;;;4.70;1.50;;;;;;;-146.32;100.00;58893.91;6215494;28;20229;-51
2021/10/01 05:03:52;;;;;;;5.70;1.93;;;;;;;-146.32;100.00;58893.91;6170544;28;20252;-55
2021/10/01 05:07:31;;;;;;;3.67;1.47;;;;;;;-146.32;100.00;58893.91;6228964;28;20236;-53
2021/10/01 05:11:11;;;;;;;1.50;1.40;;;;;;;-146.32;100.00;58893.91;6228549;28;20725;-51
2021/10/01 05:14:52;;;;;;;4.23;1.83;;;;;;;-146.32;100.00;58893.91;6228299;28;20908;-53
2021/10/01 05:18:45;;;;;;;5.07;2.23;;;;;;;-146.32;100.00;58893.91;6197441;28;20260;-50
2021/10/01 05:22:25;;;;;;;2.63;1.20;;;;;;;-146.32;100.00;58893.91;6235026;28;20601;-52
2021/10/01 05:25:46;;;;;;;2.63;1.53;;;;;;;-146.32;100.00;58893.91;6217409;28;20209;-46
2021/10/01 05:29:07;;;;;;;3.33;1.20;;;;;;;-146.32;100.00;58893.91;6213151;28;20232;-53
2021/10/01 05:32:29;;;;;;;4.70;1.57;;;;;;;-146.32;100.00;58893.91;6228021;28;20250;-55
2021/10/01 05:35:50;;;;;;;3.73;1.83;;;;;;;-146.32;100.00;58893.91;6210620;28;20240;-52
2021/10/01 05:39:11;;;;;;;6.40;1.87;;;;;;;-146.32;100.00;58893.91;6231646;28;20241;-52
2021/10/01 05:42:32;;;;;;;3.37;1.40;;;;;;;-146.32;100.00;58893.91;6213352;28;20546;-48
2021/10/01 05:45:54;;;;;;;4.53;1.70;;;;;;;-146.32;100.00;58893.91;6215825;28;22376;-51
2021/10/01 05:49:39;;;;;;;1.90;1.30;;;;;;;-146.32;100.00;58893.91;6228488;28;20244;-51
2021/10/01 05:53:36;;;;;;;2.87;1.80;;;;;;;-146.32;100.00;58893.91;6225557;28;20613;-54
2021/10/01 05:57:15;;;;;;;4.27;1.73;;;;;;;-146.32;100.00;58893.91;6234815;28;20577;-50
2021/10/01 06:00:44;;;;;;;6.00;2.93;;;;;;;-146.32;100.00;58893.91;6225260;28;20503;-52
2021/10/01 06:04:06;;;;;;;3.57;1.70;;;;;;;-146.32;100.00;58893.91;6235253;28;20236;-54
2021/10/01 06:07:28;;;;;;;4.40;1.90;;;;;;;-146.32;100.00;58893.91;6222491;28;20236;-52
2021/10/01 06:10:50;;;;;;;5.53;3.10;;;;;;;-146.32;100.00;58893.91;6225748;28;20348;-49
2021/10/01 06:14:12;;;;;;;2.70;1.77;;;;;;;-146.32;100.00;58893.91;6227542;28;20697;-55
2021/10/01 06:17:32;;;;;;;2.73;1.63;;;;;;;-146.32;100.00;58893.91;6236423;28;20229;-51
2021/10/01 06:20:53;;;;;;;1.97;1.67;;;;;;;-146.32;100.00;58893.91;6234851;28;20193;-53
2021/10/01 06:24:17;;;;;;;5.50;1.83;;;;;;;-146.32;100.00;58893.91;6230577;28;20232;-53
2021/10/01 06:27:38;;;;;;;2.87;1.87;;;;;;;-146.32;100.00;58893.91;6233738;28;20357;-53
2021/10/01 06:31:01;;;;;;;4.10;1.60;;;;;;;-146.32;100.00;58893.91;6233619;28;20469;-53
2021/10/01 06:34:23;;;;;;;3.53;2.37;;;;;;;-146.32;100.00;58893.91;6234088;28;20244;-53
2021/10/01 06:37:43;;;;;;;3.47;2.13;;;;;;;-146.32;100.00;58893.91;6236366;28;20228;-55
2021/10/01 06:41:06;;;;;;;2.92;1.60;;;;;;;-146.32;100.00;58893.91;6230894;28;20797;-54
2021/10/01 06:44:30;;;;;;;9.27;2.73;;;;;;;-146.32;100.00;58893.91;6226700;28;20560;-50
2021/10/01 06:47:56;;;;;;;4.97;1.73;;;;;;;-146.32;100.00;58893.91;6232446;28;20233;-50
2021/10/01 07:39:18;;;;;;;5.13;2.07;;;;;;;-146.32;100.00;58893.91;6235258;28;20224;-51
2021/10/01 08:19:12;;;;;;;6.83;2.93;;;;;;;-146.32;100.00;58893.91;6224543;28;20253;-53
2021/10/01 08:22:34;;;;;;;7.10;4.93;;;;;;;-146.32;100.00;58893.91;6233759;28;20236;-50
2021/10/01 08:25:55;;;;;;;6.33;4.47;;;;;;;-146.32;100.00;58893.91;6227717;28;20204;-53
2021/10/01 08:29:17;;;;;;;2.70;2.00;;;;;;;-146.32;100.00;58893.91;6227501;28;20225;-52
2021/10/01 08:32:38;;;;;;;7.60;2.27;;;;;;;-146.32;100.00;58893.91;6226725;28;20245;-52
2021/10/01 08:36:01;;;;;;;2.87;1.80;;;;;;;-146.32;100.00;58893.91;6226446;28;20420;-52
2021/10/01 08:39:21;;;;;;;4.73;2.40;;;;;;;-146.32;100.00;58893.91;6212421;28;20233;-48
2021/10/01 08:42:44;;;;;;;9.67;2.07;;;;;;;-146.32;100.00;58893.91;6216525;28;20239;-51
2021/10/01 08:46:07;;;;;;;4.20;1.90;;;;;;;-146.32;100.00;58893.91;6234550;28;20223;-49
2021/10/01 08:49:28;;;;;;;3.13;1.87;;;;;;;14.34;49.66;102097.34;6232405;28;20226;-52
2021/10/01 08:52:50;;;;;;;7.70;2.13;;;;;;;14.26;54.38;101679.94;6228337;28;20241;-52
2021/10/01 08:56:12;;;;;;;4.10;1.20;;;;;;;13.90;55.65;101676.81;6231590;28;20213;-52
2021/10/01 08:59:33;;;;;;;6.77;2.07;;;;;;;14.45;53.96;101664.88;6231308;28;20229;-52
2021/10/01 09:02:55;;;;;;;4.50;2.03;;;;;;;15.05;52.89;101660.66;6230804;28;20237;-54
2021/10/01 09:06:18;;;;;;;2.97;2.20;;;;;;;15.12;52.46;101647.44;6210759;28;20206;-53
2021/10/01 09:09:43;;;;;;;1.53;1.43;;;;;;;14.87;53.42;101657.41;6229034;28;20526;-53
2021/10/01 09:13:06;;;;;;;3.90;1.80;;;;;;;15.62;51.55;101655.38;6225186;28;20239;-52
2021/10/01 09:16:27;;;;;;;4.67;2.10;;;;;;;15.06;53.00;101658.03;6226370;28;20268;-54
2021/10/01 09:19:51;;;;;;;5.60;2.27;;;;;;;15.23;52.16;101654.25;6220465;28;20221;-49
2021/10/01 09:23:14;;;;;;;4.20;1.60;;;;;;;15.14;52.60;101645.66;6226465;28;20228;-50
2021/10/01 09:26:36;;;;;;;6.93;2.37;;;;;;;15.53;51.13;101639.81;6230893;28;20532;-54
2021/10/01 09:29:59;;;;;;;4.30;1.70;;;;;;;15.70;50.41;101644.75;6232210;28;20253;-55
2021/10/01 09:33:21;;;;;;;5.03;1.37;;;;;;;15.51;50.46;101639.81;6231516;28;20236;-52
2021/10/01 09:36:44;;;;;;;7.63;2.33;;;;;;;16.21;49.55;101621.09;6230799;28;20213;-54
2021/10/01 09:40:05;;;;;;;3.07;1.60;;;;;;;15.70;49.95;101634.25;6235456;28;20253;-53
2021/10/01 09:43:29;;;;;;;5.17;1.67;;;;;;;16.56;47.99;101616.88;6227732;28;20244;-55
2021/10/01 09:46:51;;;;;;;3.77;1.43;;;;;;;16.91;47.21;101607.38;6232347;28;20200;-52
2021/10/01 09:50:15;;;;;;;3.40;1.80;;;;;;;16.30;48.62;101609.50;6233785;28;20304;-54
2021/10/01 09:53:44;;;;;;;4.27;1.30;;;;;;;16.19;48.50;101611.47;6231661;28;20228;-54
2021/10/01 09:57:07;;;;;;;3.20;1.87;;;;;;;16.80;47.44;101601.44;6234330;28;20508;-54
2021/10/01 10:00:39;;;;;;;3.27;1.60;;;;;;;17.55;45.71;101597.03;6233907;28;20572;-55
2021/10/01 10:04:13;;;;;;;4.80;1.55;;;;;;;17.53;45.09;101612.03;6233520;28;20255;-53
2021/10/01 10:07:40;;;;;;;2.87;1.27;;;;;;;19.32;41.46;101596.31;6235478;28;20224;-52
2021/10/01 10:11:04;;;;;;;3.65;1.73;;;;;;;21.55;37.01;101583.50;6236178;28;20209;-56
2021/10/01 10:14:26;;;;;;;2.70;1.35;;;;;;;20.96;37.90;101584.19;6231301;28;20232;-55
2021/10/01 10:17:49;;;;;;;2.90;1.52;;;;;;;22.07;34.95;101567.09;6231527;28;20225;-53
2021/10/01 10:21:11;;;;;;;4.85;1.40;;;;;;;21.02;36.13;101579.50;6237949;28;20228;-54
2021/10/01 10:24:32;;;;;;;3.58;1.35;;;;;;;21.31;36.77;101580.09;6232075;28;20256;-54
2021/10/01 10:27:54;;;;;;;4.97;1.50;;;;;;;22.58;34.22;101565.63;6228771;28;20229;-51
2021/10/01 10:31:18;;;;;;;4.45;1.70;;;;;;;22.30;34.52;101568.72;6237838;28;20213;-53
2021/10/01 10:34:49;;;;;;;5.70;1.67;;;;;;;23.91;31.57;101559.03;6233537;28;20256;-54
2021/10/01 10:38:32;;;;;;;5.30;1.73;;;;;;;24.05;31.42;101566.28;6233270;28;20216;-52
2021/10/01 10:42:13;;;;;;;4.22;2.00;;;;;;;23.84;33.08;101560.28;6231510;28;20213;-53
2021/10/01 10:45:37;;;;;;;3.70;2.25;;;;;;;20.71;37.83;101565.78;6231497;28;20216;-54
2021/10/01 10:49:20;;;;;;;6.50;2.00;;;;;;;19.56;40.03;101573.47;6231342;28;20316;-53
2021/10/01 10:53:25;;;;;;;3.05;1.55;;;;;;;18.85;42.35;101560.00;6232829;28;20225;-54
2021/10/01 10:56:46;;;;;;;8.35;2.00;;;;;;;18.74;42.39;101560.28;6231849;28;20220;-51
2021/10/01 11:00:29;;;;;;;4.55;1.65;;;;;;;18.70;42.65;101562.16;6230262;28;20263;-56
2021/10/01 11:04:35;;;;;;;3.55;1.33;;;;;;;19.37;40.30;101555.63;6229661;28;20224;-55
2021/10/01 11:07:57;;;;;;;2.08;1.60;;;;;;;21.34;37.10;101550.81;6231814;28;20531;-53
2021/10/01 11:11:38;;;;;;;4.60;1.20;;;;;;;20.39;38.68;101544.91;6238232;28;20567;-54
2021/10/01 11:15:21;;;;;;;6.28;1.65;;;;;;;24.18;32.09;101522.09;6227208;28;20228;-52
2021/10/01 11:19:07;;;;;;;7.85;1.77;;;;;;;25.90;29.02;101522.69;6231544;28;20331;-51
2021/10/01 11:22:39;;;;;;;5.70;1.80;;;;;;;23.25;32.19;101523.44;6231571;28;20228;-53
2021/10/01 11:26:00;;;;;;;2.33;1.08;;;;;;;22.58;33.83;101525.81;6230001;28;20216;-52
2021/10/01 11:29:24;;;;;;;2.40;1.92;;;;;;;24.05;31.45;101516.56;6229621;28;20327;-51
2021/10/01 11:32:45;;;;;;;6.95;2.05;;;;;;;23.20;32.70;101512.16;6229791;28;20232;-53
2021/10/01 11:36:07;;;;;;;4.72;1.30;;;;;;;24.26;31.68;101503.03;6227563;28;20204;-51
2021/10/01 11:39:30;;;;;;;4.13;2.08;;;;;;;23.83;31.87;101494.75;6228919;28;20228;-55
2021/10/01 11:42:53;;;;;;;4.75;1.42;;;;;;;25.51;28.97;101494.00;6229831;28;20224;-56
2021/10/01 11:46:19;;;;;;;4.85;1.55;;;;;;;24.22;30.65;101497.03;6232534;28;20272;-52
2021/10/01 11:49:40;;;;;;;3.63;2.00;;;;;;;26.82;27.57;101486.56;6231996;28;20582;-54
2021/10/01 11:53:05;;;;;;;4.57;1.45;;;;;;;24.38;29.97;101497.03;6235946;28;20527;-54
2021/10/01 11:56:26;;;;;;;4.07;1.42;;;;;;;23.12;32.58;101498.44;6231027;28;20216;-50
2021/10/01 11:59:57;;;;;;;3.38;1.65;;;;;;;24.51;30.92;101492.75;6233932;28;20216;-52
2021/10/01 12:03:20;;;;;;;6.13;1.52;;;;;;;24.28;30.46;101479.84;6235134;28;20228;-53
2021/10/01 12:06:41;;;;;;;4.18;1.60;;;;;;;25.23;29.50;101487.69;6231886;28;20200;-56
2021/10/01 12:10:08;;;;;;;5.43;1.80;;;;;;;25.89;29.22;101477.44;6232537;28;20245;-51
2021/10/01 12:13:30;;;;;;;3.88;2.15;;;;;;;23.62;32.23;101470.16;6229661;28;20232;-53
2021/10/01 12:16:59;;;;;;;8.05;1.73;;;;;;;24.38;30.87;101475.72;6230025;28;20205;-54
2021/10/01 12:20:19;;;;;;;4.97;1.20;;;;;;;23.59;31.89;101474.69;6232152;28;20475;-54
2021/10/01 12:23:44;;;;;;;9.82;1.95;;;;;;;24.31;30.97;101474.34;6226565;28;20224;-49
2021/10/01 12:27:06;;;;;;;2.08;1.13;;;;;;;22.89;32.88;101465.03;6228889;28;20196;-56
2021/10/01 12:30:27;;;;;;;6.47;1.73;;;;;;;23.33;32.87;101464.56;6230347;28;20251;-53
2021/10/01 12:33:48;;;;;;;3.97;1.73;;;;;;;25.45;30.01;101454.38;6229393;28;20257;-53
2021/10/01 12:37:11;;;;;;;3.90;1.40;;;;;;;26.25;28.40;101452.03;6234692;28;20200;-55
2021/10/01 12:40:32;;;;;;;3.55;1.67;;;;;;;27.29;26.45;101436.19;6229213;28;20474;-56
2021/10/01 12:43:56;;;;;;;2.40;1.55;;;;;;;28.19;25.30;101427.97;6229937;28;20229;-51
2021/10/01 12:47:19;;;;;;;6.35;1.52;;;;;;;24.63;30.46;101431.75;6231859;28;20189;-53
2021/10/01 12:50:40;;;;;;;4.68;1.40;;;;;;;24.81;30.58;101433.31;6229749;28;20256;-51
2021/10/01 12:54:23;;;;;;;4.63;2.17;;;;;;;25.50;29.32;101417.66;6229206;28;20240;-54
2021/10/01 12:57:45;;;;;;;3.17;1.50;;;;;;;24.71;31.11;101416.19;6225422;28;20232;-53
2021/10/01 13:01:18;;;;;;;4.25;1.38;;;;;;;23.65;31.12;101427.44;6233517;28;20743;-52
2021/10/01 13:04:56;;;;;;;7.57;1.77;;;;;;;21.61;34.69;101415.41;6233656;28;20235;-52
2021/10/01 13:08:20;;;;;;;2.08;1.48;;;;;;;21.00;36.22;101435.72;6227080;28;20232;-50
2021/10/01 13:11:50;;;;;;;3.38;1.55;;;;;;;21.87;34.88;101434.56;6231222;28;20241;-51
2021/10/01 13:15:15;;;;;;;3.92;1.50;;;;;;;21.63;35.59;101434.75;6236640;28;20228;-53
2021/10/01 13:18:39;;;;;;;2.55;1.60;;;;;;;21.60;35.55;101441.06;6237933;28;20330;-54
2021/10/01 13:22:00;;;;;;;7.70;1.90;;;;;;;23.69;31.92;101424.53;6236439;28;20288;-49
2021/10/01 13:25:24;;;;;;;2.50;1.20;;;;;;;22.02;34.48;101433.84;6236286;28;20212;-55
2021/10/01 13:28:48;;;;;;;5.75;1.30;;;;;;;19.76;38.83;101444.19;6234600;28;20243;-52
2021/10/01 13:32:08;;;;;;;6.65;1.77;;;;;;;19.88;38.63;101439.38;6238670;28;20212;-53
2021/10/01 13:35:31;;;;;;;4.40;2.20;;;;;;;19.62;39.35;101434.13;6234186;28;20220;-52
2021/10/01 13:38:52;;;;;;;5.00;1.50;;;;;;;19.90;39.30;101432.25;6238273;28;20233;-54
2021/10/01 13:42:13;;;;;;;5.40;1.80;;;;;;;19.83;39.95;101434.25;6237332;28;20204;-49
2021/10/01 13:45:34;;;;;;;6.43;1.80;;;;;;;20.13;38.43;101420.78;6237255;28;20209;-51
2021/10/01 13:48:55;;;;;;;5.57;1.48;;;;;;;19.94;38.77;101425.91;6232060;28;20224;-53
2021/10/01 13:52:18;;;;;;;3.53;1.75;;;;;;;20.96;37.03;101406.81;6235987;28;20220;-52
2021/10/01 13:55:39;;;;;;;2.42;1.50;;;;;;;20.53;37.71;101420.03;6242973;28;20212;-53
2021/10/01 13:59:00;;;;;;;3.58;1.52;;;;;;;20.77;37.27;101406.75;6237014;28;20276;-52
2021/10/01 14:02:21;;;;;;;4.93;1.60;;;;;;;20.40;38.46;101409.09;6230042;28;20198;-53
2021/10/01 14:05:42;;;;;;;4.68;1.65;;;;;;;19.71;39.96;101398.53;6234479;28;20220;-51
2021/10/01 14:09:05;;;;;;;5.00;2.20;;;;;;;20.28;38.84;101393.72;6230463;28;20253;-54
2021/10/01 14:12:26;;;;;;;1.65;1.02;;;;;;;19.59;40.46;101399.03;6233716;28;20248;-54
2021/10/01 14:15:49;;;;;;;3.45;1.60;;;;;;;18.41;42.64;101399.56;6233143;28;20197;-56
2021/10/01 14:19:10;;;;;;;5.18;1.52;;;;;;;19.20;43.04;101391.66;6231586;28;20622;-52
2021/10/01 14:22:31;;;;;;;3.95;1.65;;;;;;;18.74;42.77;101388.78;6240228;28;20236;-56
2021/10/01 14:25:54;;;;;;;2.00;1.90;;;;;;;18.59;43.73;101391.94;6229703;28;20585;-52
2021/10/01 14:29:15;;;;;;;1.73;1.33;;;;;;;18.41;44.39;101386.38;6221052;28;20232;-53
2021/10/01 14:32:36;;;;;;;4.25;2.08;;;;;;;18.41;46.37;101398.69;6228933;28;20638;-52
2021/10/01 14:35:57;;;;;;;4.32;1.70;;;;;;;18.53;43.57;101379.81;6231294;28;20714;-51
2021/10/01 14:39:17;;;;;;;3.65;1.17;;;;;;;18.03;44.76;101388.47;6230498;28;20741;-50
2021/10/01 14:42:40;;;;;;;2.10;1.17;;;;;;;18.08;44.09;101383.91;6231324;28;20877;-52
2021/10/01 14:46:02;;;;;;;2.75;1.63;;;;;;;18.64;43.71;101377.69;6231236;28;20229;-48
2021/10/01 14:49:23;;;;;;;4.10;2.10;;;;;;;18.24;44.98;101381.66;6228319;28;20236;-50
2021/10/01 14:52:45;;;;;;;3.63;1.35;;;;;;;18.09;44.00;101377.72;6229513;28;20237;-54
2021/10/01 14:56:06;;;;;;;2.58;1.25;;;;;;;18.67;43.85;101369.69;6229478;28;20220;-50
2021/10/01 14:59:28;;;;;;;3.40;1.40;;;;;;;18.85;42.92;101364.72;6233034;28;20232;-51
2021/10/01 15:02:49;;;;;;;2.85;1.30;;;;;;;18.77;42.23;101366.75;6229670;28;20232;-53
2021/10/01 15:06:11;;;;;;;5.97;1.80;;;;;;;18.77;43.04;101372.03;6227763;28;20225;-54
2021/10/01 15:09:32;;;;;;;2.00;1.30;;;;;;;18.92;44.13;101368.88;6225779;28;20229;-52
2021/10/01 15:12:53;;;;;;;3.35;1.15;;;;;;;18.84;43.33;101369.16;6228246;28;20677;-52
2021/10/01 15:16:16;;;;;;;3.75;1.30;;;;;;;18.97;42.96;101358.16;6230948;28;20196;-51
2021/10/01 15:19:39;;;;;;;5.10;2.92;;;;;;;19.20;42.41;101360.81;6228142;28;20320;-49
2021/10/01 15:23:00;;;;;;;2.35;1.45;;;;;;;18.76;43.70;101362.38;6230077;28;20224;-51
2021/10/01 15:26:21;;;;;;;2.45;1.48;;;;;;;18.24;45.16;101357.06;6229859;28;20236;-54
2021/10/01 15:30:13;;;;;;;4.82;3.15;;;;;;;18.51;45.39;101360.56;6227997;28;20598;-51
2021/10/01 15:33:35;;;;;;;4.30;2.08;;;;;;;18.15;45.15;101355.59;6227625;28;20228;-55
2021/10/01 15:36:56;;;;;;;4.97;1.77;;;;;;;18.33;44.70;101358.53;6228014;28;20253;-54
2021/10/01 15:40:18;;;;;;;4.68;1.42;;;;;;;17.97;45.68;101353.53;6211767;28;20232;-55
2021/10/01 15:43:39;;;;;;;4.40;2.80;;;;;;;18.49;46.01;101344.81;6228207;28;20232;-53
2021/10/01 15:47:00;;;;;;;4.45;3.60;;;;;;;18.79;44.54;101335.88;6236846;28;20200;-52
2021/10/01 15:50:22;;;;;;;2.45;2.10;;;;;;;18.30;45.31;101349.81;6226818;28;20520;-49
2021/10/01 15:53:43;;;;;;;2.25;1.20;;;;;;;18.05;45.82;101344.47;6234782;28;20315;-51
2021/10/01 15:57:05;;;;;;;2.45;1.83;;;;;;;18.08;47.46;101347.00;6236318;28;20627;-55
2021/10/01 16:00:26;;;;;;;3.28;1.70;;;;;;;18.01;46.30;101347.25;6229467;28;22374;-52
2021/10/01 16:03:47;;;;;;;3.53;1.50;;;;;;;18.09;47.18;101339.97;6200737;28;20277;-48
2021/10/01 16:07:09;;;;;;;3.72;1.52;;;;;;;17.83;46.95;101356.56;6229901;28;20193;-56
2021/10/01 16:10:32;;;;;;;2.42;1.80;;;;;;;17.84;47.09;101346.00;6233071;28;20236;-54
2021/10/01 16:13:53;;;;;;;2.45;1.60;;;;;;;17.76;47.11;101344.47;6228472;28;20224;-49
2021/10/01 16:17:14;;;;;;;4.23;1.90;;;;;;;17.30;47.86;101339.69;6233620;28;20578;-53
2021/10/01 16:20:35;;;;;;;3.50;2.00;;;;;;;17.65;47.01;101336.91;6235609;28;20201;-53
2021/10/01 16:23:58;;;;;;;3.07;1.60;;;;;;;17.23;47.93;101335.50;6228632;28;20666;-52
2021/10/01 16:27:20;;;;;;;3.40;1.73;;;;;;;17.64;47.02;101335.19;6226809;28;20210;-53
2021/10/01 16:30:45;;;;;;;4.85;3.42;;;;;;;17.74;46.17;101336.66;6229869;28;20491;-50
2021/10/01 16:34:06;;;;;;;2.17;1.97;;;;;;;17.85;46.35;101337.19;6229080;28;20220;-54
2021/10/01 16:37:27;;;;;;;2.93;1.60;;;;;;;17.65;46.33;101336.91;6233187;28;20252;-51
2021/10/01 16:40:50;;;;;;;2.70;1.20;;;;;;;17.61;46.05;101332.66;6229723;28;20212;-53
2021/10/01 16:44:15;;;;;;;1.60;1.50;;;;;;;17.38;47.16;101328.06;6228505;28;20216;-50
2021/10/01 16:47:36;;;;;;;3.47;1.57;;;;;;;17.18;47.07;101326.03;6234265;28;20888;-53
2021/10/01 16:50:57;;;;;;;2.43;1.90;;;;;;;17.30;47.18;101325.66;6231652;28;20217;-54
2021/10/01 16:54:18;;;;;;;2.97;1.50;;;;;;;17.29;46.97;101323.91;6233401;28;20514;-52
2021/10/01 16:57:40;;;;;;;2.97;1.57;;;;;;;17.16;47.19;101322.53;6236369;28;20323;-54
2021/10/01 17:01:01;;;;;;;2.92;1.75;;;;;;;17.10;46.88;101321.84;6229973;28;20284;-52
2021/10/01 17:04:22;;;;;;;3.92;2.40;;;;;;;17.24;46.79;101329.34;6223707;28;20233;-52
2021/10/01 17:07:43;;;;;;;3.10;1.57;;;;;;;17.10;46.47;101326.25;6231436;28;20236;-51